Time;durP1;ratioP1;P1;durP2;ratioP2;P2;SDS_P1;SDS_P2;PMS_P1;PMS_P2;Temp;Humidity;BMP_temperature;BMP_pressure;BME280_temperature;BME280_humidity;BME280_pressure;Samples;Min_cycle;Max_cycle;Signal;HPM_P1;HPM_P2
2021/09/05 00:00:32;;;;;;;7.30;3.90;;;;;;;11.52;72.76;97185.49;113707;1188;2576316;-89
2021/09/05 00:03:12;;;;;;;7.40;4.40;;;;;;;11.44;72.85;97179.09;115850;1189;29038;-88
2021/09/05 00:05:40;;;;;;;6.80;3.50;;;;;;;11.29;73.04;97174.57;115868;1190;29054;-89
2021/09/05 00:08:11;;;;;;;7.10;3.80;;;;;;;11.32;73.39;97172.54;115757;1195;36949;-88
2021/09/05 00:10:39;;;;;;;7.40;3.90;;;;;;;11.34;73.28;97172.91;115838;1192;30150;-88
2021/09/05 00:13:07;;;;;;;8.90;4.20;;;;;;;11.37;73.51;97175.39;115863;1190;28901;-89
2021/09/05 00:15:35;;;;;;;7.20;4.30;;;;;;;11.42;73.45;97174.48;115811;1196;28168;-89
2021/09/05 00:18:04;;;;;;;7.30;4.20;;;;;;;11.28;73.31;97169.52;115780;1189;28160;-89
2021/09/05 00:20:33;;;;;;;6.80;3.70;;;;;;;11.20;73.53;97173.98;115830;1189;34004;-88
2021/09/05 00:23:03;;;;;;;6.70;4.00;;;;;;;11.09;73.68;97177.88;115810;1188;27813;-89
2021/09/05 00:25:31;;;;;;;;;;;;;;;10.94;74.02;97180.01;115854;1188;30592;-89
2021/09/05 00:27:59;;;;;;;6.90;3.60;;;;;;;10.85;74.34;97178.96;115801;1189;50015;-89
2021/09/05 00:30:28;;;;;;;6.90;3.60;;;;;;;10.89;74.38;97179.43;115865;1189;31205;-89
2021/09/05 00:32:57;;;;;;;5.40;3.50;;;;;;;10.89;74.44;97178.11;115851;1189;28755;-89
2021/09/05 00:35:25;;;;;;;5.10;3.10;;;;;;;10.99;74.58;97176.19;115826;1189;27026;-89
2021/09/05 00:37:53;;;;;;;7.90;4.00;;;;;;;11.04;74.42;97177.89;115847;1188;28326;-89
2021/09/05 00:40:21;;;;;;;6.30;3.50;;;;;;;11.05;74.38;97181.12;115863;1188;29247;-89
2021/09/05 00:42:49;;;;;;;5.80;3.60;;;;;;;11.08;74.21;97183.39;115828;1196;27599;-89
2021/09/05 00:45:18;;;;;;;5.50;3.00;;;;;;;11.05;74.18;97185.26;115826;1188;29460;-89
2021/09/05 00:47:46;;;;;;;6.70;3.40;;;;;;;11.02;74.24;97188.08;115906;1188;26893;-89
2021/09/05 00:50:14;;;;;;;6.10;2.80;;;;;;;10.94;74.40;97193.64;115956;1188;33736;-89
2021/09/05 00:52:43;;;;;;;9.00;4.00;;;;;;;10.96;74.37;97194.43;115847;1189;29461;-89
2021/09/05 00:55:11;;;;;;;6.20;4.00;;;;;;;10.98;74.40;97188.65;115868;1189;32579;-89
2021/09/05 00:57:42;;;;;;;5.40;3.10;;;;;;;11.04;74.27;97192.64;115835;1189;29770;-90
2021/09/05 01:00:12;;;;;;;6.40;3.00;;;;;;;11.09;73.98;97187.90;115905;1189;28792;-88
2021/09/05 01:02:41;;;;;;;5.70;3.20;;;;;;;11.04;73.82;97191.73;115873;1185;29404;-90
2021/09/05 01:05:11;;;;;;;7.00;3.70;;;;;;;10.74;73.87;97190.56;115840;1189;27075;-89
2021/09/05 01:07:40;;;;;;;6.00;3.50;;;;;;;10.49;74.51;97188.31;115829;1190;27995;-89
2021/09/05 01:10:11;;;;;;;5.30;3.20;;;;;;;10.35;75.05;97184.20;115814;1190;36799;-89
2021/09/05 01:12:40;;;;;;;5.60;3.20;;;;;;;10.36;75.22;97185.53;115835;1196;29534;-88
2021/09/05 01:15:10;;;;;;;6.00;3.20;;;;;;;10.36;74.96;97181.81;115826;1189;29248;-89
2021/09/05 01:17:39;;;;;;;7.10;3.40;;;;;;;10.30;74.98;97178.38;115848;1189;26843;-89
2021/09/05 01:20:10;;;;;;;5.70;3.00;;;;;;;10.34;75.05;97177.95;115839;1189;29017;-89
2021/09/05 01:22:38;;;;;;;5.60;3.30;;;;;;;10.24;74.95;97178.77;115860;1189;27266;-90
2021/09/05 01:25:08;;;;;;;6.70;3.30;;;;;;;10.24;75.13;97190.96;115851;1189;28495;-89
2021/09/05 01:27:36;;;;;;;8.50;3.90;;;;;;;10.21;75.20;97186.81;115863;1190;27371;-89
2021/09/05 01:30:06;;;;;;;7.30;3.30;;;;;;;10.21;75.18;97186.27;115793;1190;37565;-89
2021/09/05 01:32:34;;;;;;;6.90;3.40;;;;;;;10.20;74.88;97190.99;115837;1189;29110;-88
2021/09/05 01:35:03;;;;;;;7.30;3.50;;;;;;;10.18;74.90;97194.05;115834;1189;32756;-89
2021/09/05 01:37:32;;;;;;;6.90;3.20;;;;;;;10.21;75.04;97191.58;115845;1191;28253;-89
2021/09/05 01:40:00;;;;;;;6.20;3.00;;;;;;;10.25;75.12;97193.29;115854;1190;28200;-89
2021/09/05 01:42:28;;;;;;;4.70;3.00;;;;;;;10.26;75.25;97199.13;115767;1190;33941;-89
2021/09/05 01:44:57;;;;;;;7.40;3.30;;;;;;;10.07;75.40;97195.45;115846;1188;31851;-89
2021/09/05 01:47:25;;;;;;;7.90;3.10;;;;;;;9.90;75.79;97198.09;115818;1188;29877;-89
2021/09/05 01:49:53;;;;;;;7.10;3.10;;;;;;;9.84;75.98;97197.36;115895;1190;28172;-90
2021/09/05 01:52:22;;;;;;;4.30;2.80;;;;;;;9.83;76.18;97198.20;115925;1188;25814;-89
2021/09/05 01:54:50;;;;;;;5.50;3.00;;;;;;;9.90;76.15;97197.98;115831;1189;33336;-89
2021/09/05 01:57:18;;;;;;;7.20;3.50;;;;;;;9.97;76.17;97198.41;115883;1189;30322;-89
2021/09/05 01:59:46;;;;;;;4.90;2.80;;;;;;;10.06;76.16;97194.65;115887;1188;36833;-90
2021/09/05 02:02:15;;;;;;;6.20;3.00;;;;;;;10.16;75.88;97196.36;115859;1189;34093;-88
2021/09/05 02:04:43;;;;;;;6.60;3.00;;;;;;;10.14;75.48;97198.64;115866;1190;31273;-90
2021/09/05 02:07:11;;;;;;;5.80;3.00;;;;;;;10.05;75.60;97197.14;115914;1189;27922;-90
2021/09/05 02:09:39;;;;;;;7.30;3.30;;;;;;;10.00;75.72;97199.88;115824;1189;28978;-89
2021/09/05 02:12:08;;;;;;;5.80;3.30;;;;;;;10.01;75.80;97198.71;115876;1189;25429;-90
2021/09/05 02:14:36;;;;;;;5.80;2.90;;;;;;;10.05;75.78;97200.47;115836;1189;28535;-89
2021/09/05 02:17:05;;;;;;;6.30;3.20;;;;;;;10.10;75.64;97206.83;115845;1189;29113;-90
2021/09/05 02:19:33;;;;;;;4.20;2.60;;;;;;;10.02;75.38;97209.52;115840;1190;28439;-90
2021/09/05 02:22:02;;;;;;;4.00;2.40;;;;;;;10.04;75.56;97216.63;115888;1189;27717;-90
2021/09/05 02:24:30;;;;;;;3.50;2.80;;;;;;;10.00;75.44;97220.00;115864;1196;28584;-90
2021/09/05 02:26:58;;;;;;;4.90;2.60;;;;;;;9.99;75.60;97223.34;115848;1196;29415;-89
2021/09/05 02:29:26;;;;;;;7.40;2.80;;;;;;;10.06;75.48;97223.84;115841;1189;30576;-90
2021/09/05 02:31:57;;;;;;;4.00;2.40;;;;;;;9.97;74.99;97221.80;115885;1189;27606;-90
2021/09/05 02:34:25;;;;;;;4.60;2.60;;;;;;;9.86;75.23;97214.75;115850;1188;27823;-90
2021/09/05 02:36:53;;;;;;;6.40;3.30;;;;;;;9.82;75.53;97224.63;115870;1188;28995;-90
2021/09/05 02:39:21;;;;;;;4.40;2.80;;;;;;;9.69;75.60;97230.98;115907;1188;40366;-89
2021/09/05 02:41:50;;;;;;;5.10;2.40;;;;;;;9.61;75.81;97228.72;115892;1188;27612;-89
2021/09/05 02:44:18;;;;;;;4.50;2.90;;;;;;;9.55;75.91;97227.92;115888;1189;30568;-89
2021/09/05 02:46:46;;;;;;;6.70;2.90;;;;;;;9.53;76.09;97231.78;115866;1189;27991;-88
2021/09/05 02:49:14;;;;;;;4.50;2.60;;;;;;;9.58;76.34;97233.30;115922;1188;30790;-90
2021/09/05 02:51:42;;;;;;;6.30;2.70;;;;;;;9.63;76.48;97237.93;115948;1188;28377;-89
2021/09/05 02:54:11;;;;;;;5.60;3.00;;;;;;;9.68;76.43;97237.37;115917;1188;29681;-90
2021/09/05 02:56:39;;;;;;;7.30;2.70;;;;;;;9.70;76.24;97238.02;115879;1188;28167;-89
2021/09/05 02:59:07;;;;;;;6.20;2.60;;;;;;;9.65;76.03;97238.20;115950;1189;28206;-90
2021/09/05 03:01:35;;;;;;;5.50;2.60;;;;;;;9.57;75.97;97239.17;115887;1189;32870;-89
2021/09/05 03:04:04;;;;;;;5.60;3.00;;;;;;;9.43;76.13;97240.09;115892;1188;31180;-90
2021/09/05 03:06:32;;;;;;;4.60;2.30;;;;;;;9.27;76.45;97242.57;115830;1189;29041;-91
2021/09/05 03:09:01;;;;;;;4.40;2.60;;;;;;;9.12;76.96;97243.20;115803;1189;29456;-88
2021/09/05 03:11:29;;;;;;;6.90;3.10;;;;;;;9.06;77.35;97247.44;115862;1185;30816;-88
2021/09/05 03:13:58;;;;;;;6.30;3.30;;;;;;;9.05;77.52;97241.77;115854;1189;26351;-88
2021/09/05 03:16:26;;;;;;;7.70;3.30;;;;;;;9.06;77.84;97242.05;115825;1189;59307;-89
2021/09/05 03:18:54;;;;;;;4.00;2.60;;;;;;;9.06;78.10;97240.36;115820;1189;27849;-89
2021/09/05 03:21:33;;;;;;;5.30;2.80;;;;;;;9.06;78.25;97246.59;115823;1189;28368;-88
2021/09/05 03:24:02;;;;;;;5.60;3.30;;;;;;;9.04;78.33;97242.52;115899;1189;29074;-88
2021/09/05 03:26:30;;;;;;;6.10;3.10;;;;;;;9.11;78.41;97240.28;115789;1189;42786;-89
2021/09/05 03:28:58;;;;;;;5.80;3.00;;;;;;;9.22;78.36;97241.11;115847;1189;27600;-89
2021/09/05 03:31:27;;;;;;;6.70;3.40;;;;;;;9.34;78.23;97240.30;115802;1189;27856;-89
2021/09/05 03:33:55;;;;;;;6.00;3.20;;;;;;;9.38;78.02;97242.06;115872;1191;29626;-90
2021/09/05 03:36:24;;;;;;;4.30;2.50;;;;;;;9.33;77.63;97244.20;115862;1189;31934;-89
2021/09/05 03:38:52;;;;;;;7.00;3.80;;;;;;;9.35;77.66;97247.71;115843;1189;32531;-89
2021/09/05 03:41:20;;;;;;;5.10;3.00;;;;;;;9.41;77.37;97249.59;115890;1189;29625;-89
2021/09/05 03:43:48;;;;;;;6.10;3.50;;;;;;;9.42;77.43;97247.85;115882;1189;28138;-89
2021/09/05 03:46:16;;;;;;;8.90;3.70;;;;;;;9.44;77.23;97250.27;115816;1189;30763;-89
2021/09/05 03:48:45;;;;;;;7.30;4.80;;;;;;;9.42;77.17;97248.50;115930;1189;28570;-90
2021/09/05 03:51:13;;;;;;;5.70;3.70;;;;;;;9.19;77.24;97251.03;115884;1189;27026;-89
2021/09/05 03:53:41;;;;;;;5.10;3.10;;;;;;;9.03;77.43;97254.70;112653;1189;2029076;-89
2021/09/05 03:56:10;;;;;;;6.50;2.70;;;;;;;8.89;77.76;97251.96;111257;1186;2009641;-88
2021/09/05 03:58:38;;;;;;;6.50;2.70;;;;;;;8.94;78.07;97253.73;115754;1189;54682;-88
2021/09/05 04:01:09;;;;;;;5.60;2.80;;;;;;;8.95;78.09;97251.04;113912;1189;2392192;-89
2021/09/05 04:03:37;;;;;;;5.90;3.00;;;;;;;9.02;78.32;97251.11;115688;1189;54000;-89
2021/09/05 04:06:06;;;;;;;5.20;3.10;;;;;;;9.13;78.25;97257.96;115787;1182;56272;-90
2021/09/05 04:08:39;;;;;;;5.20;2.90;;;;;;;9.23;78.04;97258.47;115738;1185;60505;-89
2021/09/05 04:11:11;;;;;;;6.30;3.40;;;;;;;9.31;77.90;97261.70;114114;1189;2067125;-89
2021/09/05 04:13:39;;;;;;;5.00;3.20;;;;;;;9.31;77.94;97265.42;115727;1185;47916;-89
2021/09/05 04:16:11;;;;;;;7.40;3.60;;;;;;;9.40;78.32;97266.75;115738;1189;50056;-90
2021/09/05 04:18:39;;;;;;;5.30;3.20;;;;;;;9.88;78.94;97270.42;115715;1189;65236;-89
2021/09/05 04:21:07;;;;;;;4.70;3.20;;;;;;;10.51;78.77;97275.36;115684;1189;53879;-88
2021/09/05 04:23:39;;;;;;;8.00;3.30;;;;;;;11.12;78.17;97279.35;114299;1185;1838262;-89
2021/09/05 04:26:07;;;;;;;7.30;3.20;;;;;;;11.76;77.19;97277.40;115746;1189;53837;-88
2021/09/05 04:28:35;;;;;;;6.10;3.50;;;;;;;12.15;75.76;97281.89;115798;1189;28225;-89
2021/09/05 04:31:03;;;;;;;7.10;3.20;;;;;;;12.46;74.81;97278.61;115838;1188;49365;-90
2021/09/05 04:33:31;;;;;;;5.40;3.20;;;;;;;12.64;73.85;97282.89;115814;1189;30243;-89
2021/09/05 04:36:00;;;;;;;6.90;3.30;;;;;;;12.97;73.73;97283.58;115836;1188;30301;-88
2021/09/05 04:38:28;;;;;;;4.90;3.10;;;;;;;13.29;72.74;97280.09;115771;1189;47957;-90
2021/09/05 04:40:56;;;;;;;6.10;3.50;;;;;;;13.75;72.85;97281.05;115687;1197;60695;-90
2021/09/05 04:43:24;;;;;;;7.30;3.40;;;;;;;14.28;71.80;97280.42;115767;1189;29138;-90
2021/09/05 04:45:53;;;;;;;6.10;3.40;;;;;;;14.63;70.27;97281.30;115832;1190;43842;-89
2021/09/05 04:48:21;;;;;;;5.00;2.90;;;;;;;14.63;69.44;97280.92;115827;1189;26011;-89
2021/09/05 04:50:49;;;;;;;5.60;3.50;;;;;;;14.91;69.68;97281.39;115683;1189;67654;-89
2021/09/05 04:53:19;;;;;;;;;;;;;;;15.26;68.13;97282.90;113755;1189;2581906;-89
2021/09/05 04:55:47;;;;;;;5.40;3.20;;;;;;;15.68;68.25;97289.17;115693;1189;72415;-90
2021/09/05 04:58:15;;;;;;;4.70;2.80;;;;;;;16.39;67.96;97287.50;115759;1189;71429;-90
2021/09/05 05:00:44;;;;;;;4.90;3.20;;;;;;;17.24;67.43;97288.66;115836;1189;61983;-90
2021/09/05 05:03:12;;;;;;;5.90;3.10;;;;;;;17.83;65.03;97289.73;113246;1189;2038619;-90
2021/09/05 05:05:40;;;;;;;5.40;3.40;;;;;;;17.98;64.02;97292.39;115771;1189;33013;-90
2021/09/05 05:08:09;;;;;;;6.70;3.00;;;;;;;18.51;64.08;97293.35;115800;1189;33409;-90
2021/09/05 05:10:37;;;;;;;7.50;3.10;;;;;;;19.01;62.83;97297.73;114031;1189;2178587;-89
2021/09/05 05:13:06;;;;;;;6.00;2.90;;;;;;;18.90;61.12;97301.40;115866;1190;28906;-89
2021/09/05 05:15:35;;;;;;;3.80;2.60;;;;;;;18.46;60.06;97303.31;115793;1189;30507;-89
2021/09/05 05:18:03;;;;;;;5.60;3.00;;;;;;;18.23;59.63;97308.56;115838;1189;28632;-90
2021/09/05 05:20:31;;;;;;;5.80;3.00;;;;;;;18.10;59.66;97307.45;115739;1190;29321;-90
2021/09/05 05:22:59;;;;;;;5.30;3.10;;;;;;;18.43;60.11;97310.69;115766;1189;27545;-90
2021/09/05 05:25:28;;;;;;;4.30;2.70;;;;;;;19.04;59.62;97314.20;115829;1196;25981;-90
2021/09/05 05:27:56;;;;;;;7.10;3.00;;;;;;;19.64;59.25;97314.16;115768;1189;55824;-90
2021/09/05 05:30:24;;;;;;;4.80;2.90;;;;;;;20.74;58.50;97317.50;115798;1191;30238;-89
2021/09/05 05:32:53;;;;;;;4.50;2.80;;;;;;;21.37;56.62;97318.67;115856;1185;39136;-90
2021/09/05 05:35:21;;;;;;;6.20;3.00;;;;;;;21.98;56.07;97319.89;115798;1188;29594;-90
2021/09/05 05:37:49;;;;;;;4.30;3.20;;;;;;;21.96;53.92;97321.49;115795;1189;30323;-90
2021/09/05 05:40:22;;;;;;;5.10;2.80;;;;;;;21.83;52.53;97323.48;115799;1189;31674;-89
2021/09/05 05:42:51;;;;;;;5.40;3.10;;;;;;;22.31;53.09;97325.31;115813;1189;31167;-90
2021/09/05 05:45:19;;;;;;;4.60;2.70;;;;;;;22.85;52.01;97320.38;115864;1190;27981;-91
2021/09/05 05:47:48;;;;;;;4.60;2.80;;;;;;;23.12;51.17;97326.61;115845;1189;31945;-90
2021/09/05 05:50:16;;;;;;;4.00;2.50;;;;;;;23.33;50.36;97332.71;115857;1189;35585;-90
2021/09/05 05:52:44;;;;;;;5.40;2.90;;;;;;;23.00;49.43;97334.52;115882;1189;30704;-89
2021/09/05 05:55:13;;;;;;;4.20;2.40;;;;;;;22.19;49.48;97333.94;115918;1189;26332;-89
2021/09/05 05:57:41;;;;;;;6.90;2.60;;;;;;;21.32;49.05;97337.58;115886;1189;33622;-89
2021/09/05 06:00:11;;;;;;;3.80;2.40;;;;;;;21.15;50.78;97340.34;115858;1195;33937;-89
2021/09/05 06:02:40;;;;;;;5.80;2.60;;;;;;;22.41;50.87;97340.30;115816;1189;31116;-89
2021/09/05 06:05:10;;;;;;;3.30;2.20;;;;;;;23.26;48.99;97340.95;115873;1189;26673;-90
2021/09/05 06:07:38;;;;;;;4.70;2.40;;;;;;;24.04;49.09;97345.70;115796;1181;28818;-88
2021/09/05 06:10:08;;;;;;;5.00;2.50;;;;;;;24.76;47.98;97351.79;115812;1189;26934;-90
2021/09/05 06:12:36;;;;;;;4.00;2.30;;;;;;;24.51;46.71;97349.17;115831;1189;27699;-89
2021/09/05 06:15:07;;;;;;;3.80;2.50;;;;;;;24.06;46.45;97353.84;115822;1189;40277;-89
2021/09/05 06:17:35;;;;;;;4.90;2.70;;;;;;;23.41;46.30;97356.90;115798;1196;30814;-90
2021/09/05 06:20:05;;;;;;;3.30;2.20;;;;;;;22.88;46.57;97356.54;115807;1189;29356;-90
2021/09/05 06:22:43;;;;;;;2.70;2.20;;;;;;;22.20;46.80;97357.55;115838;1190;26903;-89
2021/09/05 06:25:12;;;;;;;4.20;2.00;;;;;;;21.76;47.04;97362.64;115902;1189;26204;-89
2021/09/05 06:27:40;;;;;;;4.20;2.40;;;;;;;21.29;47.35;97366.80;115790;1189;30537;-88
2021/09/05 06:30:11;;;;;;;4.30;2.30;;;;;;;20.88;47.67;97370.30;115791;1185;28552;-87
2021/09/05 06:32:39;;;;;;;4.40;2.00;;;;;;;20.54;47.95;97371.58;115825;1189;25474;-87
2021/09/05 06:35:10;;;;;;;3.30;2.10;;;;;;;20.25;47.94;97368.14;115852;1188;25727;-87
2021/09/05 06:37:39;;;;;;;3.60;1.90;;;;;;;19.98;48.41;97369.16;115874;1189;27216;-86
2021/09/05 06:40:10;;;;;;;4.00;2.10;;;;;;;19.85;48.98;97373.05;115833;1189;25064;-87
2021/09/05 06:42:45;;;;;;;3.40;2.40;;;;;;;19.89;49.13;97376.16;113265;1189;3251041;-86
2021/09/05 06:45:13;;;;;;;4.10;2.10;;;;;;;19.78;49.21;97378.83;115921;1189;24829;-87
2021/09/05 06:47:42;;;;;;;3.00;2.00;;;;;;;19.78;49.27;97384.67;115984;1190;24623;-87
2021/09/05 06:50:12;;;;;;;4.80;2.20;;;;;;;19.85;49.14;97387.11;115867;1189;26548;-87
2021/09/05 06:52:40;;;;;;;;;;;;;;;19.91;49.41;97387.33;115826;1189;26753;-86
2021/09/05 06:55:10;;;;;;;3.30;1.80;;;;;;;20.04;48.93;97388.48;115836;1188;28433;-87
2021/09/05 06:57:39;;;;;;;3.00;1.80;;;;;;;19.58;47.66;97396.27;115869;1190;25251;-85
2021/09/05 07:00:09;;;;;;;4.00;1.70;;;;;;;19.35;48.69;97400.14;115875;1189;23735;-86
2021/09/05 07:02:38;;;;;;;3.00;1.40;;;;;;;19.20;47.23;97403.23;115903;1189;37757;-86
2021/09/05 07:05:08;;;;;;;2.20;1.30;;;;;;;19.35;47.70;97405.63;115866;1189;25820;-87
2021/09/05 07:07:35;;;;;;;;;;;;;;;20.35;46.81;97410.02;115923;1195;24437;-87
2021/09/05 07:10:05;;;;;;;4.70;1.50;;;;;;;20.30;46.07;97414.58;115893;1189;23392;-86
2021/09/05 07:12:33;;;;;;;3.70;1.40;;;;;;;19.95;46.38;97414.98;115896;1189;25079;-87
2021/09/05 07:15:05;;;;;;;2.10;1.30;;;;;;;21.72;45.52;97417.74;115885;1189;41219;-85
2021/09/05 07:17:33;;;;;;;2.30;1.30;;;;;;;23.26;43.95;97420.39;115859;1189;24968;-86
2021/09/05 07:20:02;;;;;;;1.80;1.00;;;;;;;24.38;41.42;97427.28;115753;1189;74195;-84
2021/09/05 07:22:30;;;;;;;2.40;1.40;;;;;;;24.92;39.04;97426.02;115848;1185;39809;-86
2021/09/05 07:24:58;;;;;;;2.00;1.40;;;;;;;25.63;38.55;97431.88;115818;1188;57013;-85
2021/09/05 07:27:27;;;;;;;3.70;1.40;;;;;;;26.04;35.05;97433.67;115836;1189;54013;-85
2021/09/05 07:29:55;;;;;;;2.30;1.30;;;;;;;26.10;33.78;97439.53;115898;1189;43898;-86
2021/09/05 07:32:23;;;;;;;2.40;1.30;;;;;;;25.78;32.58;97439.37;115868;1189;47912;-85
2021/09/05 07:34:52;;;;;;;2.40;1.20;;;;;;;25.78;32.48;97445.49;115748;1189;79478;-85
2021/09/05 07:37:20;;;;;;;1.90;1.20;;;;;;;25.69;32.92;97444.91;115809;1185;40525;-85
2021/09/05 07:39:49;;;;;;;2.20;1.30;;;;;;;25.37;31.93;97444.20;115767;1188;55399;-87
2021/09/05 07:42:17;;;;;;;3.50;1.70;;;;;;;25.27;32.83;97443.44;115802;1189;46506;-87
2021/09/05 07:44:45;;;;;;;1.60;1.10;;;;;;;25.76;33.44;97444.50;115846;1189;56494;-87
2021/09/05 07:47:14;;;;;;;2.40;1.10;;;;;;;26.25;32.84;97447.82;115873;1188;42389;-87
2021/09/05 07:49:42;;;;;;;1.60;1.10;;;;;;;26.59;32.79;97448.05;115942;1189;41261;-88
2021/09/05 07:52:11;;;;;;;1.70;1.10;;;;;;;27.19;31.65;97446.95;115855;1189;53621;-88
2021/09/05 07:54:39;;;;;;;2.30;1.30;;;;;;;27.46;32.17;97449.45;115792;1189;47458;-88
2021/09/05 07:57:08;;;;;;;2.40;1.30;;;;;;;27.33;31.21;97448.86;115819;1189;27678;-87
2021/09/05 07:59:37;;;;;;;1.60;1.00;;;;;;;26.62;30.74;97460.02;115791;1189;53791;-88
2021/09/05 08:02:06;;;;;;;2.50;0.80;;;;;;;25.68;29.67;97461.15;115777;1191;56254;-87
2021/09/05 08:04:35;;;;;;;3.10;1.20;;;;;;;24.23;29.89;97460.15;115838;1189;54106;-89
2021/09/05 08:07:04;;;;;;;2.80;1.10;;;;;;;23.47;31.67;97466.11;115829;1190;43402;-88
2021/09/05 08:09:32;;;;;;;3.20;0.90;;;;;;;22.93;32.30;97469.80;115875;1189;25571;-89
2021/09/05 08:12:01;;;;;;;1.70;0.90;;;;;;;22.13;33.59;97477.97;115849;1189;27245;-89
2021/09/05 08:14:29;;;;;;;2.40;1.40;;;;;;;21.84;34.84;97479.05;115820;1189;26398;-89
2021/09/05 08:16:58;;;;;;;2.00;1.10;;;;;;;21.57;35.47;97480.05;115753;1189;30388;-90
2021/09/05 08:19:26;;;;;;;2.10;1.10;;;;;;;21.53;36.03;97482.29;115831;1189;25189;-90
2021/09/05 08:21:55;;;;;;;3.30;0.80;;;;;;;21.33;35.77;97485.30;115841;1195;28459;-89
2021/09/05 08:24:23;;;;;;;2.00;1.20;;;;;;;20.85;35.76;97485.44;115871;1189;28166;-89
2021/09/05 08:26:51;;;;;;;2.50;1.20;;;;;;;20.39;36.63;97482.30;115880;1188;23995;-89
2021/09/05 08:29:20;;;;;;;2.40;1.00;;;;;;;19.99;36.70;97481.85;115803;1188;31727;-89
2021/09/05 08:31:48;;;;;;;4.20;1.30;;;;;;;19.65;37.97;97488.88;115855;1188;25243;-89
2021/09/05 08:34:16;;;;;;;2.80;1.40;;;;;;;19.40;38.22;97492.23;115839;1189;27910;-89
2021/09/05 08:36:45;;;;;;;3.20;1.30;;;;;;;19.18;39.03;97493.41;115871;1185;24974;-88
2021/09/05 08:39:13;;;;;;;1.60;1.30;;;;;;;19.31;39.75;97496.25;115843;1189;27542;-88
2021/09/05 08:41:41;;;;;;;2.20;1.00;;;;;;;19.21;39.39;97492.02;115930;1189;25480;-88
2021/09/05 08:44:10;;;;;;;2.70;1.20;;;;;;;19.09;40.03;97490.46;115788;1192;27765;-89
2021/09/05 08:46:40;;;;;;;2.10;1.10;;;;;;;19.22;40.45;97489.39;115814;1189;28001;-89
2021/09/05 08:49:08;;;;;;;2.40;1.30;;;;;;;19.13;40.38;97495.63;115834;1189;27334;-89
2021/09/05 08:51:37;;;;;;;2.50;1.20;;;;;;;18.68;40.45;97495.88;115833;1192;26240;-88
2021/09/05 08:54:05;;;;;;;2.20;1.10;;;;;;;18.37;40.51;97497.93;115835;1189;29682;-89
2021/09/05 08:56:34;;;;;;;2.30;1.10;;;;;;;18.16;41.51;97498.45;115802;1189;26528;-89
2021/09/05 08:59:02;;;;;;;2.40;0.90;;;;;;;18.05;41.77;97505.04;115840;1189;34213;-89
2021/09/05 09:01:31;;;;;;;2.60;1.40;;;;;;;18.10;42.17;97500.34;115816;1192;32755;-89
2021/09/05 09:04:09;;;;;;;3.60;1.60;;;;;;;18.03;42.67;97504.23;115818;1189;33826;-89
2021/09/05 09:06:39;;;;;;;2.20;1.10;;;;;;;18.09;43.63;97502.14;115857;1189;24834;-88
2021/09/05 09:09:09;;;;;;;4.30;1.30;;;;;;;18.05;43.41;97503.31;115784;1189;31226;-89
2021/09/05 09:11:55;;;;;;;3.00;1.30;;;;;;;18.10;44.57;97503.09;115843;1189;29750;-88
2021/09/05 09:14:39;;;;;;;2.30;1.20;;;;;;;18.29;45.30;97501.55;115799;1189;25635;-89
2021/09/05 09:17:08;;;;;;;1.60;1.20;;;;;;;18.65;45.36;97500.61;115791;1189;27137;-88
2021/09/05 09:19:38;;;;;;;2.30;1.20;;;;;;;18.70;43.61;97498.13;115866;1189;26037;-88
2021/09/05 09:22:15;;;;;;;3.10;1.30;;;;;;;18.55;44.92;97499.45;115801;1189;28098;-87
2021/09/05 09:24:44;;;;;;;2.00;0.90;;;;;;;18.74;44.62;97500.89;115901;1189;28830;-88
2021/09/05 09:27:13;;;;;;;2.10;1.40;;;;;;;18.63;44.42;97496.20;115870;1189;28308;-88
2021/09/05 09:29:41;;;;;;;3.50;1.50;;;;;;;18.67;44.64;97506.47;115817;1191;25084;-88
2021/09/05 09:32:17;;;;;;;2.10;1.00;;;;;;;18.52;44.39;97507.34;115806;1189;25651;-88
2021/09/05 09:34:47;;;;;;;1.30;1.20;;;;;;;18.17;43.92;97512.20;115861;1196;23315;-88
2021/09/05 09:37:17;;;;;;;2.10;1.40;;;;;;;17.90;44.85;97510.10;115893;1189;26117;-88
2021/09/05 09:39:46;;;;;;;;;;;;;;;17.97;45.03;97512.08;115907;1189;29910;-88
2021/09/05 09:42:36;;;;;;;1.60;1.00;;;;;;;18.06;45.43;97513.00;115880;1196;31585;-88
2021/09/05 09:45:11;;;;;;;4.30;0.90;;;;;;;18.19;44.24;97513.89;115851;1189;24415;-88
2021/09/05 09:47:43;;;;;;;1.70;0.60;;;;;;;18.14;44.48;97517.60;115817;1189;25442;-87
2021/09/05 09:50:12;;;;;;;1.80;0.90;;;;;;;18.26;43.82;97513.55;115862;1189;31044;-88
2021/09/05 09:52:43;;;;;;;2.40;0.80;;;;;;;18.25;44.26;97512.60;115785;1190;26500;-87
2021/09/05 09:55:13;;;;;;;1.90;1.10;;;;;;;18.24;43.59;97509.56;115868;1190;25854;-88
2021/09/05 09:57:41;;;;;;;1.20;0.90;;;;;;;18.29;44.03;97510.96;115800;1189;34894;-87
2021/09/05 10:00:12;;;;;;;1.70;1.00;;;;;;;18.39;43.68;97506.18;115787;1192;45676;-87
2021/09/05 10:02:42;;;;;;;1.50;0.70;;;;;;;18.44;43.96;97504.52;115822;1189;24398;-88
2021/09/05 10:05:13;;;;;;;1.90;1.00;;;;;;;18.56;43.36;97509.20;115862;1189;26168;-88
2021/09/05 10:07:41;;;;;;;;;;;;;;;18.33;41.45;97511.39;115874;1189;26826;-88
2021/09/05 10:10:14;;;;;;;1.00;0.70;;;;;;;17.82;41.09;97510.81;115783;1189;33709;-87
2021/09/05 10:12:43;;;;;;;1.00;0.80;;;;;;;17.57;42.18;97508.85;115844;1189;27201;-88
2021/09/05 10:15:13;;;;;;;2.40;0.80;;;;;;;17.64;43.24;97509.14;115793;1189;26054;-88
2021/09/05 10:17:42;;;;;;;1.50;0.90;;;;;;;17.85;43.70;97509.52;115783;1189;27863;-88
2021/09/05 10:20:14;;;;;;;1.10;0.80;;;;;;;17.92;42.96;97509.14;115828;1189;29581;-87
2021/09/05 10:22:44;;;;;;;1.70;0.80;;;;;;;17.87;42.67;97510.61;115822;1190;27661;-87
2021/09/05 10:25:16;;;;;;;2.90;1.00;;;;;;;17.78;42.92;97506.15;115889;1189;33614;-88
2021/09/05 10:27:50;;;;;;;1.00;0.70;;;;;;;17.81;43.14;97508.79;115882;1190;26663;-87
2021/09/05 10:30:21;;;;;;;1.50;0.70;;;;;;;17.88;43.78;97509.73;115845;1189;26973;-86
2021/09/05 10:32:52;;;;;;;1.20;0.60;;;;;;;17.93;42.81;97512.84;115665;1189;24238;-83
2021/09/05 10:35:38;;;;;;;1.20;0.90;;;;;;;17.76;42.39;97509.79;115893;1189;24934;-82
2021/09/05 10:38:32;;;;;;;2.10;0.90;;;;;;;17.75;43.96;97506.20;115853;1182;24926;-85
2021/09/05 10:41:02;;;;;;;1.00;0.60;;;;;;;17.98;43.76;97509.69;115684;1192;25305;-86
2021/09/05 10:44:09;;;;;;;1.40;0.70;;;;;;;17.89;42.53;97510.40;115862;1196;22425;-86
2021/09/05 10:46:45;;;;;;;1.90;0.90;;;;;;;17.65;42.70;97508.70;115395;1195;23240;-84
2021/09/05 10:49:14;;;;;;;1.00;0.70;;;;;;;17.53;42.72;97506.77;115875;1189;24461;-83
2021/09/05 10:51:47;;;;;;;1.80;1.00;;;;;;;17.46;43.62;97511.09;115940;1189;24241;-84
2021/09/05 10:54:23;;;;;;;1.90;0.90;;;;;;;17.46;43.49;97511.67;115955;1189;24000;-82
2021/09/05 10:56:52;;;;;;;2.10;0.90;;;;;;;17.38;43.14;97511.48;115866;1189;25368;-87
2021/09/05 10:59:22;;;;;;;3.00;0.80;;;;;;;17.42;43.99;97512.95;115877;1185;37706;-90
2021/09/05 11:02:02;;;;;;;1.20;1.00;;;;;;;17.68;44.93;97511.27;115827;1190;28920;-92
2021/09/05 11:04:46;;;;;;;1.50;0.90;;;;;;;17.84;43.77;97505.52;115898;1190;40833;-93
2021/09/05 11:07:34;;;;;;;1.00;0.60;;;;;;;17.84;42.97;97509.54;115882;1189;27149;-93
2021/09/05 11:10:03;;;;;;;2.60;0.80;;;;;;;17.86;43.15;97511.16;115742;1189;54789;-92
2021/09/05 11:12:43;;;;;;;1.70;0.90;;;;;;;17.88;43.62;97509.23;115792;1189;57553;-91
2021/09/05 11:15:21;;;;;;;0.90;0.60;;;;;;;17.97;42.97;97511.65;116043;1192;71697;-91
2021/09/05 11:17:56;;;;;;;2.90;0.90;;;;;;;18.05;43.57;97510.34;115710;1189;62954;-91
2021/09/05 11:20:26;;;;;;;1.10;0.90;;;;;;;18.05;43.46;97514.17;115781;1193;55271;-93
2021/09/05 11:22:58;;;;;;;1.80;1.00;;;;;;;18.11;43.48;97514.11;115766;1188;65569;-92
2021/09/05 11:25:30;;;;;;;1.40;0.50;;;;;;;17.92;43.13;97514.30;115827;1189;54036;-91
2021/09/05 11:28:06;;;;;;;1.20;0.70;;;;;;;17.81;43.68;97512.52;115866;1193;29826;-91
2021/09/05 11:30:37;;;;;;;1.60;0.70;;;;;;;17.93;43.62;97517.23;115852;1194;26986;-92
2021/09/05 11:33:08;;;;;;;1.60;1.00;;;;;;;17.78;42.94;97512.35;115816;1189;26531;-94
2021/09/05 11:35:39;;;;;;;;;;;;;;;17.54;43.76;97507.75;115847;1192;27474;-91
2021/09/05 11:38:09;;;;;;;1.80;1.00;;;;;;;17.41;44.08;97510.02;115819;1189;28748;-92